Terminal Aerodrome Forecast
Issued by NWS

Home | Current Version | Previous Version | Graphics & Text | Print | Product List | Glossary On
Versions: 1 2 3 4 5 6 7 8 9 10 11 12
000
FTUS43 KIWX 271724
TAFSBN
TAF
KSBN 271724Z 2718/2818 26017G26KT P6SM SKC
     FM272300 26009KT P6SM BKN200
     FM280700 22004KT P6SM VCSH OVC100
     FM281400 22006KT P6SM -SHRA OVC025=

USA.gov is the U.S. government's official web portal to all federal, state and local government web resources and services.